Time;durP1;ratioP1;P1;durP2;ratioP2;P2;SDS_P1;SDS_P2;PMS_P1;PMS_P2;Temp;Humidity;BMP_temperature;BMP_pressure;BME280_temperature;BME280_humidity;BME280_pressure;Samples;Min_cycle;Max_cycle;Signal;HPM_P1;HPM_P2
2021/10/21 00:00:22;;;;;;;33.90;21.33;;;;;;;8.82;70.65;101008.28;5071750;28;20029;-20
2021/10/21 00:02:48;;;;;;;33.03;22.38;;;;;;;9.13;69.44;100996.59;5071394;28;20036;-20
2021/10/21 00:05:13;;;;;;;30.05;21.60;;;;;;;8.47;71.86;101001.84;5071345;28;20040;-20
2021/10/21 00:07:39;;;;;;;30.40;21.50;;;;;;;8.87;71.39;100999.75;5071418;28;20032;-20
2021/10/21 00:10:06;;;;;;;33.22;22.33;;;;;;;9.17;69.51;100985.38;5036683;28;20385;-21
2021/10/21 00:12:32;;;;;;;36.95;24.70;;;;;;;9.02;69.18;100969.47;5053361;28;20029;-20
2021/10/21 00:14:59;;;;;;;139.65;73.45;;;;;;;8.95;70.40;100975.69;5053280;28;20416;-21
2021/10/21 00:17:24;;;;;;;68.78;41.78;;;;;;;9.20;69.90;100997.50;5036872;28;20121;-21
2021/10/21 00:19:50;;;;;;;47.50;31.33;;;;;;;8.49;71.30;100994.53;5071259;28;20036;-20
2021/10/21 00:22:15;;;;;;;35.22;25.27;;;;;;;7.78;74.23;101002.75;5053248;28;20060;-20
2021/10/21 00:24:41;;;;;;;29.45;21.42;;;;;;;7.38;75.83;100992.25;5071152;28;20039;-20
2021/10/21 00:27:06;;;;;;;29.48;19.10;;;;;;;7.11;76.48;100993.56;5070881;28;20032;-20
2021/10/21 00:29:33;;;;;;;26.90;18.58;;;;;;;6.90;77.43;100995.94;5052886;28;20051;-20
2021/10/21 00:31:58;;;;;;;25.48;17.67;;;;;;;6.68;77.87;100984.25;5070685;28;20057;-20
2021/10/21 00:34:24;;;;;;;27.98;18.85;;;;;;;7.07;76.86;100994.91;5070735;28;20032;-21
2021/10/21 00:36:49;;;;;;;30.85;21.35;;;;;;;7.70;74.38;100978.91;5070456;28;20365;-21
2021/10/21 00:39:15;;;;;;;32.22;21.73;;;;;;;7.76;74.27;100970.25;5070692;28;20039;-20
2021/10/21 00:41:40;;;;;;;32.30;21.33;;;;;;;8.25;72.08;100975.97;5052662;28;20040;-20
2021/10/21 00:44:08;;;;;;;36.65;21.35;;;;;;;8.32;71.90;100960.13;5070557;28;20025;-20
2021/10/21 00:46:35;;;;;;;39.20;22.98;;;;;;;8.08;72.41;100955.03;5070614;28;20170;-20
2021/10/21 00:49:00;;;;;;;42.13;22.25;;;;;;;7.27;76.14;100963.44;5035809;28;20081;-20
2021/10/21 00:51:26;;;;;;;37.42;21.90;;;;;;;8.04;74.04;100955.38;5070351;28;20036;-20
2021/10/21 00:53:51;;;;;;;46.97;26.08;;;;;;;8.11;73.86;100962.63;5052613;28;20036;-20
2021/10/21 00:56:18;;;;;;;38.90;21.10;;;;;;;7.32;75.68;100944.34;5035754;28;20043;-22
2021/10/21 00:58:44;;;;;;;36.92;20.52;;;;;;;7.00;77.21;100948.84;5070280;28;20025;-22
2021/10/21 01:01:10;;;;;;;65.78;28.27;;;;;;;7.65;75.70;100955.56;5052772;28;20047;-20
2021/10/21 01:03:35;;;;;;;41.05;24.10;;;;;;;7.98;73.65;100949.97;5070400;28;20036;-20
2021/10/21 01:06:01;;;;;;;40.83;22.38;;;;;;;7.13;76.65;100951.78;5070175;28;20028;-20
2021/10/21 01:08:26;;;;;;;43.83;22.88;;;;;;;6.59;78.43;100935.75;5070610;28;20082;-20
2021/10/21 01:10:52;;;;;;;39.35;21.70;;;;;;;7.46;75.07;100946.25;5070074;28;20040;-20
2021/10/21 01:13:18;;;;;;;39.03;22.05;;;;;;;7.68;73.99;100939.25;5052205;28;20024;-20
2021/10/21 01:15:43;;;;;;;38.08;22.33;;;;;;;7.36;75.11;100914.63;5070198;28;20024;-20
2021/10/21 01:18:09;;;;;;;36.15;22.88;;;;;;;6.94;77.21;100936.28;5069883;28;20020;-20
2021/10/21 01:20:34;;;;;;;36.40;22.70;;;;;;;6.91;77.76;100931.34;5070047;28;20033;-20
2021/10/21 01:23:00;;;;;;;37.72;21.55;;;;;;;7.06;76.60;100934.88;5069670;28;20040;-20
2021/10/21 01:25:25;;;;;;;32.30;20.77;;;;;;;7.01;76.78;100927.47;5069893;28;20464;-20
2021/10/21 01:27:51;;;;;;;32.55;21.05;;;;;;;7.01;76.40;100916.03;5070412;28;20028;-20
2021/10/21 01:30:23;;;;;;;32.25;20.67;;;;;;;6.95;76.12;100937.94;5051644;28;20037;-20
2021/10/21 01:32:49;;;;;;;28.13;18.67;;;;;;;6.61;76.48;100947.03;5069611;28;20020;-20
2021/10/21 01:35:15;;;;;;;26.23;17.83;;;;;;;6.33;77.83;100928.88;5069167;28;20036;-20
2021/10/21 01:37:41;;;;;;;26.45;17.45;;;;;;;6.89;75.13;100933.34;5069413;28;20025;-20
2021/10/21 01:40:10;;;;;;;30.17;19.88;;;;;;;7.17;74.45;100939.81;5069521;28;20039;-21
2021/10/21 01:42:39;;;;;;;29.13;18.13;;;;;;;7.31;72.90;100926.78;5069471;28;20037;-21
2021/10/21 01:45:24;;;;;;;27.38;17.77;;;;;;;6.71;75.90;100934.38;5052091;28;20036;-20
2021/10/21 01:47:49;;;;;;;26.58;18.95;;;;;;;6.33;77.53;100914.81;5069494;28;20024;-20
2021/10/21 01:50:15;;;;;;;26.63;17.08;;;;;;;6.38;77.74;100928.38;5051679;28;20063;-21
2021/10/21 01:52:41;;;;;;;25.92;18.20;;;;;;;6.49;77.40;100927.19;5051872;28;20040;-20
2021/10/21 01:55:07;;;;;;;25.95;17.90;;;;;;;6.46;78.22;100920.41;5069115;28;20036;-21
2021/10/21 01:57:32;;;;;;;26.45;16.90;;;;;;;6.20;78.31;100923.28;5051260;28;20028;-21
2021/10/21 01:59:58;;;;;;;26.63;17.25;;;;;;;6.13;79.38;100922.28;5052230;28;20554;-21
2021/10/21 02:02:23;;;;;;;25.05;17.40;;;;;;;5.98;80.03;100919.53;5051362;28;20028;-21
2021/10/21 02:04:49;;;;;;;22.98;17.23;;;;;;;5.78;79.88;100893.38;5051144;28;20028;-20
2021/10/21 02:07:14;;;;;;;24.08;17.33;;;;;;;5.98;80.24;100928.28;5069131;28;20031;-20
2021/10/21 02:09:40;;;;;;;27.65;18.05;;;;;;;6.00;80.57;100913.06;5069089;28;20035;-20
2021/10/21 02:12:05;;;;;;;25.92;18.20;;;;;;;5.85;81.52;100898.84;5068947;28;20036;-20
2021/10/21 02:14:31;;;;;;;21.17;16.15;;;;;;;6.25;80.43;100905.06;5051150;28;20412;-21
2021/10/21 02:16:57;;;;;;;28.65;19.25;;;;;;;6.65;78.30;100905.91;5050621;28;20403;-20
2021/10/21 02:19:23;;;;;;;28.50;18.90;;;;;;;6.63;77.84;100897.31;5069055;28;20040;-20
2021/10/21 02:21:49;;;;;;;28.77;19.58;;;;;;;6.26;79.63;100898.78;5069156;28;20044;-20
2021/10/21 02:24:14;;;;;;;33.13;19.83;;;;;;;6.16;81.68;100917.50;5068895;28;20033;-20
2021/10/21 02:26:39;;;;;;;42.03;21.27;;;;;;;6.01;82.32;100912.06;5068868;28;20485;-20
2021/10/21 02:29:05;;;;;;;47.20;21.05;;;;;;;5.86;83.89;100912.88;5068702;28;20036;-20
2021/10/21 02:31:30;;;;;;;39.20;21.88;;;;;;;5.73;83.73;100876.34;5068829;28;20049;-20
2021/10/21 02:33:56;;;;;;;45.90;22.88;;;;;;;6.37;83.03;100908.16;5068751;28;20509;-20
2021/10/21 02:36:21;;;;;;;65.45;25.48;;;;;;;6.41;83.09;100905.00;5069095;28;20032;-20
2021/10/21 02:38:47;;;;;;;128.85;29.55;;;;;;;6.48;83.98;100906.97;5068586;28;20021;-20
2021/10/21 02:41:12;;;;;;;163.30;30.88;;;;;;;6.80;83.25;100908.66;5068717;28;20033;-20
2021/10/21 02:43:38;;;;;;;98.32;29.33;;;;;;;7.09;81.81;100907.19;5068862;28;20103;-20
2021/10/21 02:46:04;;;;;;;80.20;27.73;;;;;;;6.64;83.52;100883.09;5068775;28;20400;-20
2021/10/21 02:48:29;;;;;;;91.30;29.10;;;;;;;6.70;84.32;100910.69;5037320;28;20028;-20
2021/10/21 02:50:55;;;;;;;85.35;28.08;;;;;;;7.01;82.42;100900.13;5054663;28;20051;-20
2021/10/21 02:53:20;;;;;;;172.68;34.63;;;;;;;7.48;80.50;100911.56;5054838;28;20496;-20
2021/10/21 02:55:46;;;;;;;159.07;31.85;;;;;;;6.97;83.25;100904.13;5072499;28;20036;-20
2021/10/21 02:58:11;;;;;;;103.68;30.40;;;;;;;7.07;83.28;100910.03;5054778;28;20464;-20
2021/10/21 03:00:37;;;;;;;139.10;31.90;;;;;;;7.64;80.74;100901.66;5072887;28;20506;-20
2021/10/21 03:03:02;;;;;;;126.97;30.48;;;;;;;7.96;78.80;100910.31;5072306;28;20067;-20
2021/10/21 03:05:28;;;;;;;93.50;28.80;;;;;;;7.43;80.48;100912.09;5054636;28;20058;-20
2021/10/21 03:07:53;;;;;;;91.03;28.27;;;;;;;7.04;83.23;100913.00;5072555;28;20028;-21
2021/10/21 03:10:19;;;;;;;142.60;29.55;;;;;;;7.05;82.96;100896.13;5072545;28;20043;-21
2021/10/21 03:12:44;;;;;;;187.85;31.70;;;;;;;7.48;81.07;100907.09;5054872;28;20029;-21
2021/10/21 03:15:10;;;;;;;123.50;29.77;;;;;;;7.50;80.79;100915.69;5072165;28;20032;-20
2021/10/21 03:17:41;;;;;;;128.27;27.38;;;;;;;6.76;83.85;100902.06;5071979;28;20043;-20
2021/10/21 03:20:09;;;;;;;94.82;28.77;;;;;;;6.55;85.46;100894.69;5072726;28;20098;-20
2021/10/21 03:22:35;;;;;;;183.63;35.55;;;;;;;7.01;84.33;100905.41;5054540;28;20029;-22
2021/10/21 03:25:00;;;;;;;170.65;31.17;;;;;;;7.28;82.00;100905.91;5054702;28;20040;-20
2021/10/21 03:27:26;;;;;;;74.78;25.67;;;;;;;7.10;82.10;100899.06;5054458;28;20154;-20
2021/10/21 03:29:51;;;;;;;121.82;26.90;;;;;;;6.93;82.21;100884.25;5072641;28;20032;-20
2021/10/21 03:32:17;;;;;;;124.90;29.42;;;;;;;6.99;81.64;100889.69;5072006;28;20130;-20
2021/10/21 03:34:42;;;;;;;101.35;27.50;;;;;;;7.50;79.71;100898.94;5072013;28;20028;-20
2021/10/21 03:37:08;;;;;;;261.42;38.53;;;;;;;7.41;80.57;100879.59;5071303;28;20020;-20
2021/10/21 03:39:35;;;;;;;104.13;26.90;;;;;;;7.54;79.51;100884.28;5071656;28;20032;-20
2021/10/21 03:42:00;;;;;;;44.33;21.38;;;;;;;6.60;81.65;100890.53;5071767;28;20385;-20
2021/10/21 03:44:26;;;;;;;121.28;26.65;;;;;;;6.69;82.74;100883.38;5071648;28;20044;-20
2021/10/21 03:46:51;;;;;;;161.85;30.45;;;;;;;6.94;83.13;100876.09;5071298;28;20086;-20
2021/10/21 03:49:17;;;;;;;167.45;27.77;;;;;;;7.10;81.99;100883.13;5053862;28;20044;-20
2021/10/21 03:51:42;;;;;;;123.07;27.00;;;;;;;6.52;83.25;100872.03;5071594;28;20094;-20
2021/10/21 03:54:12;;;;;;;174.75;29.02;;;;;;;6.61;85.04;100872.81;5071373;28;20492;-20
2021/10/21 03:56:42;;;;;;;61.60;21.67;;;;;;;6.98;80.72;100871.28;5071573;28;20040;-20
2021/10/21 03:59:08;;;;;;;85.60;23.58;;;;;;;6.89;81.94;100867.84;5070724;28;20047;-21
2021/10/21 04:01:33;;;;;;;90.70;26.58;;;;;;;6.67;82.59;100873.94;5071501;28;20032;-20
2021/10/21 04:03:59;;;;;;;216.88;29.27;;;;;;;6.46;83.32;100869.22;5053689;28;20036;-20
2021/10/21 04:06:24;;;;;;;142.82;26.13;;;;;;;6.83;81.60;100871.22;5071344;28;20562;-20
2021/10/21 04:08:50;;;;;;;117.75;26.23;;;;;;;6.90;80.67;100861.53;5071330;28;20024;-20
2021/10/21 04:11:15;;;;;;;115.28;27.08;;;;;;;7.03;80.42;100861.00;5071420;28;20039;-20
2021/10/21 04:13:40;;;;;;;110.88;24.58;;;;;;;6.82;79.50;100853.63;5071572;28;20538;-22
2021/10/21 04:16:06;;;;;;;120.03;25.70;;;;;;;6.70;80.69;100866.47;5071845;28;20075;-20
2021/10/21 04:18:31;;;;;;;45.08;21.13;;;;;;;6.10;84.47;100853.81;5071190;28;20054;-20
2021/10/21 04:20:57;;;;;;;127.35;21.27;;;;;;;6.42;82.45;100853.69;5070849;28;20024;-21
2021/10/21 04:23:22;;;;;;;110.43;23.67;;;;;;;6.45;81.71;100863.09;5071235;28;20036;-21
2021/10/21 04:25:48;;;;;;;81.28;22.77;;;;;;;6.32;81.92;100868.13;5071260;28;20028;-21
2021/10/21 04:28:13;;;;;;;99.78;22.52;;;;;;;6.16;83.42;100858.41;5071351;28;20032;-20
2021/10/21 04:30:39;;;;;;;107.07;23.38;;;;;;;6.01;84.53;100850.34;5070927;28;20044;-20
2021/10/21 04:33:04;;;;;;;61.15;17.88;;;;;;;6.12;84.66;100851.81;5070813;28;20057;-20
2021/10/21 04:35:30;;;;;;;102.03;21.58;;;;;;;5.63;85.87;100837.63;5071394;28;20028;-20
2021/10/21 04:37:55;;;;;;;40.75;19.25;;;;;;;6.12;82.29;100846.50;5070604;28;20037;-21
2021/10/21 04:40:21;;;;;;;64.10;19.70;;;;;;;6.29;81.95;100849.91;5070883;28;20036;-20
2021/10/21 04:42:46;;;;;;;139.27;26.30;;;;;;;6.58;81.38;100833.41;5070514;28;20033;-20
2021/10/21 04:45:12;;;;;;;78.88;23.55;;;;;;;6.44;81.91;100856.97;5052643;28;20079;-20
2021/10/21 04:47:37;;;;;;;79.30;23.70;;;;;;;6.75;81.94;100853.53;5071233;28;20435;-22
2021/10/21 04:50:03;;;;;;;102.15;24.50;;;;;;;6.51;82.01;100843.03;5070780;28;20029;-20
2021/10/21 04:52:28;;;;;;;68.75;29.50;;;;;;;5.97;83.59;100843.75;5052642;28;20477;-20
2021/10/21 04:54:54;;;;;;;96.70;28.35;;;;;;;5.83;85.41;100842.59;5070238;28;20035;-20
2021/10/21 04:57:19;;;;;;;78.65;25.95;;;;;;;5.66;86.27;100854.19;5070305;28;20029;-20
2021/10/21 04:59:45;;;;;;;70.65;23.23;;;;;;;5.97;85.55;100855.16;5070310;28;20032;-20
2021/10/21 05:02:10;;;;;;;42.03;21.35;;;;;;;5.63;86.81;100858.81;5070502;28;20455;-20
2021/10/21 05:04:36;;;;;;;42.28;18.63;;;;;;;5.54;85.77;100843.94;5070484;28;20040;-21
2021/10/21 05:07:02;;;;;;;36.45;17.98;;;;;;;5.55;85.71;100856.16;5070417;28;20044;-20
2021/10/21 05:09:27;;;;;;;62.28;19.17;;;;;;;6.17;82.87;100839.72;5069494;28;20427;-21
2021/10/21 05:11:53;;;;;;;84.93;19.30;;;;;;;5.80;83.57;100858.78;5070043;28;20033;-20
2021/10/21 05:14:18;;;;;;;55.58;18.48;;;;;;;5.79;85.21;100857.16;5070194;28;20032;-20
2021/10/21 05:16:44;;;;;;;70.20;19.92;;;;;;;6.44;82.24;100851.69;5070083;28;20443;-19
2021/10/21 05:19:09;;;;;;;77.15;22.52;;;;;;;6.70;79.95;100855.88;5069988;28;20185;-19
2021/10/21 05:21:35;;;;;;;114.50;26.88;;;;;;;6.57;79.98;100834.41;5069943;28;20408;-21
2021/10/21 05:24:00;;;;;;;93.05;19.42;;;;;;;6.35;80.63;100851.88;5070159;28;20094;-19
2021/10/21 05:26:26;;;;;;;132.52;21.70;;;;;;;6.51;81.09;100851.00;5052054;28;20043;-20
2021/10/21 05:28:51;;;;;;;51.22;19.65;;;;;;;6.69;79.88;100867.47;5069539;28;20024;-20
2021/10/21 05:31:17;;;;;;;52.67;21.30;;;;;;;7.06;79.54;100868.56;5069841;28;20542;-20
2021/10/21 05:33:42;;;;;;;70.38;21.77;;;;;;;7.46;77.38;100861.31;5069796;28;20032;-20
2021/10/21 05:36:08;;;;;;;53.03;19.55;;;;;;;7.15;78.21;100864.03;5069818;28;20032;-20
2021/10/21 05:38:33;;;;;;;91.75;22.02;;;;;;;6.81;80.09;100867.91;5069452;28;20021;-20
2021/10/21 05:40:59;;;;;;;154.57;24.27;;;;;;;7.32;78.41;100859.47;5069555;28;20032;-19
2021/10/21 05:43:24;;;;;;;92.47;22.75;;;;;;;7.02;79.12;100869.94;5069694;28;20024;-19
2021/10/21 05:45:50;;;;;;;69.75;20.98;;;;;;;7.07;78.38;100862.28;5069584;28;20408;-20
2021/10/21 05:48:16;;;;;;;176.45;26.38;;;;;;;7.39;77.84;100873.66;5035083;28;20733;-19
2021/10/21 05:50:42;;;;;;;106.90;23.52;;;;;;;7.40;77.27;100840.81;5069045;28;20119;-20
2021/10/21 05:53:08;;;;;;;66.85;22.65;;;;;;;7.03;79.31;100861.00;5069434;28;20033;-19
2021/10/21 05:55:33;;;;;;;58.75;20.88;;;;;;;6.42;81.33;100866.09;5069360;28;20033;-19
2021/10/21 05:57:59;;;;;;;52.70;18.67;;;;;;;6.29;83.04;100853.38;5069252;28;20032;-21
2021/10/21 06:00:24;;;;;;;49.95;22.23;;;;;;;6.13;83.41;100864.03;5069733;28;20043;-20
2021/10/21 06:02:51;;;;;;;50.15;18.98;;;;;;;5.87;85.04;100864.25;5069080;28;20864;-20
2021/10/21 06:05:17;;;;;;;43.58;17.63;;;;;;;5.73;86.43;100868.41;5069283;28;20032;-20
2021/10/21 06:07:42;;;;;;;97.03;21.60;;;;;;;5.95;86.02;100873.03;5069354;28;20036;-19
2021/10/21 06:10:08;;;;;;;52.30;19.35;;;;;;;5.94;85.96;100868.69;5069201;28;20028;-20
2021/10/21 06:12:33;;;;;;;53.42;22.25;;;;;;;5.64;86.46;100854.38;5068864;28;20031;-20
2021/10/21 06:15:03;;;;;;;70.63;21.67;;;;;;;6.00;86.54;100853.97;5068817;28;20032;-20
2021/10/21 06:17:29;;;;;;;72.25;25.38;;;;;;;6.18;85.79;100872.31;5069005;28;20491;-20
2021/10/21 06:19:54;;;;;;;51.50;21.80;;;;;;;6.32;85.83;100874.25;5068794;28;20028;-19
2021/10/21 06:22:20;;;;;;;48.92;22.23;;;;;;;6.83;83.38;100869.38;5069144;28;20036;-20
2021/10/21 06:24:46;;;;;;;126.22;25.30;;;;;;;6.87;83.25;100861.09;5068855;28;20039;-20
2021/10/21 06:27:12;;;;;;;106.15;26.52;;;;;;;7.14;82.66;100865.06;5068791;28;20032;-21
2021/10/21 06:29:40;;;;;;;78.80;22.55;;;;;;;7.07;82.42;100872.03;5069277;28;20029;-19
2021/10/21 06:32:07;;;;;;;40.47;20.48;;;;;;;6.86;82.43;100843.50;5068568;28;20071;-20
2021/10/21 06:34:32;;;;;;;56.08;21.02;;;;;;;7.16;81.31;100855.91;5067294;28;20041;-21
2021/10/21 06:36:58;;;;;;;71.55;26.10;;;;;;;7.32;81.71;100854.16;5068380;28;20033;-20
2021/10/21 06:39:23;;;;;;;100.00;26.10;;;;;;;7.51;81.21;100848.31;5068654;28;20170;-19
2021/10/21 06:41:49;;;;;;;93.65;28.25;;;;;;;7.84;78.85;100835.56;5068680;28;20032;-20
2021/10/21 06:44:14;;;;;;;58.53;21.88;;;;;;;7.80;78.16;100849.38;5068860;28;20113;-19
2021/10/21 06:46:40;;;;;;;57.45;24.67;;;;;;;7.88;78.36;100849.31;5068624;28;20036;-20
2021/10/21 06:49:05;;;;;;;90.13;39.47;;;;;;;8.23;78.08;100847.78;5050516;28;20538;-20
2021/10/21 06:51:31;;;;;;;64.55;31.90;;;;;;;8.43;78.13;100852.53;5069081;28;20021;-21
2021/10/21 06:53:56;;;;;;;50.60;25.85;;;;;;;8.44;77.56;100844.38;5068570;28;20040;-19
2021/10/21 06:56:22;;;;;;;71.10;32.45;;;;;;;8.56;75.79;100852.72;5068788;28;20029;-20
2021/10/21 06:58:47;;;;;;;63.92;23.35;;;;;;;8.61;75.68;100854.81;5068178;28;20035;-20
2021/10/21 07:01:13;;;;;;;40.90;20.08;;;;;;;8.49;76.31;100845.66;5068714;28;20036;-20
2021/10/21 07:03:38;;;;;;;33.00;20.00;;;;;;;8.16;79.33;100857.47;5068738;28;20029;-19
2021/10/21 07:06:04;;;;;;;62.17;20.77;;;;;;;8.09;77.79;100850.41;5068517;28;20467;-20
2021/10/21 07:08:29;;;;;;;57.03;23.15;;;;;;;8.34;77.89;100850.97;5068524;28;20028;-20
2021/10/21 07:11:00;;;;;;;63.58;23.23;;;;;;;8.34;76.99;100822.56;5068119;28;20025;-19
2021/10/21 07:13:25;;;;;;;59.47;29.38;;;;;;;8.60;78.20;100831.88;5068597;28;20113;-20
2021/10/21 07:15:51;;;;;;;41.17;25.02;;;;;;;8.60;79.61;100837.19;5068516;28;20386;-20
2021/10/21 07:18:16;;;;;;;51.50;26.33;;;;;;;8.31;81.21;100817.59;5068235;28;20079;-19
2021/10/21 07:20:42;;;;;;;47.90;26.83;;;;;;;8.97;78.77;100832.69;5068380;28;20090;-20
2021/10/21 07:23:07;;;;;;;39.58;25.95;;;;;;;9.01;80.12;100832.13;5068311;28;20032;-20
2021/10/21 07:25:35;;;;;;;51.08;26.45;;;;;;;9.23;78.48;100827.63;5068332;28;20038;-19
2021/10/21 07:28:02;;;;;;;68.35;30.13;;;;;;;9.30;78.40;100811.72;5068433;28;20062;-19
2021/10/21 07:30:27;;;;;;;43.35;25.75;;;;;;;9.34;78.24;100817.50;5068179;28;20514;-21
2021/10/21 07:32:54;;;;;;;50.15;28.60;;;;;;;9.35;79.23;100824.44;5068491;28;20048;-20
2021/10/21 07:35:20;;;;;;;48.92;25.67;;;;;;;9.17;78.80;100827.56;5072176;28;20036;-19
2021/10/21 07:37:45;;;;;;;50.38;28.33;;;;;;;9.84;77.47;100818.25;5071999;28;20035;-20
2021/10/21 07:40:11;;;;;;;40.15;27.48;;;;;;;10.17;76.27;100812.28;5071685;28;20090;-21
2021/10/21 07:42:38;;;;;;;53.90;31.65;;;;;;;10.39;76.93;100789.84;5072155;28;20033;-20
2021/10/21 07:45:04;;;;;;;64.65;31.48;;;;;;;10.45;77.07;100807.72;5072002;28;20837;-19
2021/10/21 07:47:29;;;;;;;48.08;29.13;;;;;;;9.94;78.96;100805.38;5071657;28;20038;-20
2021/10/21 07:49:55;;;;;;;57.03;34.70;;;;;;;9.82;80.95;100799.78;5053795;28;20071;-19
2021/10/21 07:52:26;;;;;;;60.97;34.55;;;;;;;9.56;82.02;100789.81;5071937;28;20029;-19
2021/10/21 07:54:51;;;;;;;77.70;37.92;;;;;;;9.35;82.41;100771.19;5071516;28;20040;-20
2021/10/21 07:57:20;;;;;;;60.60;35.55;;;;;;;9.54;81.49;100780.34;5072129;28;20025;-20
2021/10/21 07:59:45;;;;;;;85.60;43.45;;;;;;;9.54;81.90;100777.69;5071987;28;20068;-20
2021/10/21 08:02:11;;;;;;;68.40;40.53;;;;;;;10.42;78.50;100769.94;5071576;28;20153;-20
2021/10/21 08:04:36;;;;;;;75.70;41.75;;;;;;;10.32;80.54;100751.69;5071669;28;20036;-20
2021/10/21 08:07:02;;;;;;;78.00;40.78;;;;;;;10.65;77.34;100761.63;5071286;28;20024;-20
2021/10/21 08:09:30;;;;;;;69.03;41.00;;;;;;;10.57;78.21;100759.13;5071511;28;20039;-21
2021/10/21 08:11:56;;;;;;;75.70;42.22;;;;;;;10.90;76.62;100732.50;5071420;28;20087;-20
2021/10/21 08:14:22;;;;;;;77.47;43.55;;;;;;;11.14;76.88;100757.75;5053264;28;20119;-20
2021/10/21 08:16:48;;;;;;;70.63;42.53;;;;;;;10.80;78.28;100756.09;5071089;28;20540;-20
2021/10/21 08:19:13;;;;;;;80.18;44.92;;;;;;;10.81;78.52;100747.88;5071133;28;20070;-20
2021/10/21 08:21:39;;;;;;;75.68;44.60;;;;;;;10.90;77.80;100742.34;5071189;28;20036;-20
2021/10/21 08:24:06;;;;;;;81.30;45.13;;;;;;;11.03;78.73;100742.34;5071186;28;20039;-19
2021/10/21 08:26:32;;;;;;;79.00;45.30;;;;;;;11.56;74.63;100741.47;5053380;28;20420;-20
2021/10/21 08:28:57;;;;;;;81.10;45.08;;;;;;;11.16;76.04;100730.88;5070783;28;20033;-20
2021/10/21 08:31:23;;;;;;;78.72;43.45;;;;;;;11.55;76.06;100735.31;5071022;28;20044;-20
2021/10/21 08:33:48;;;;;;;69.20;40.60;;;;;;;11.20;75.74;100716.06;5070866;28;20047;-19
2021/10/21 08:36:14;;;;;;;74.43;42.22;;;;;;;11.41;75.71;100707.00;5070901;28;20412;-20
2021/10/21 08:38:40;;;;;;;67.70;39.85;;;;;;;11.55;77.99;100737.19;5053053;28;20468;-20
2021/10/21 08:41:07;;;;;;;66.75;38.25;;;;;;;11.86;76.42;100717.75;5070743;28;20043;-20
2021/10/21 08:43:33;;;;;;;63.30;37.58;;;;;;;11.80;75.10;100713.25;5070625;28;20480;-19
2021/10/21 08:45:59;;;;;;;62.85;38.30;;;;;;;12.32;72.82;100719.44;5069501;28;20035;-21
2021/10/21 08:48:25;;;;;;;60.15;36.55;;;;;;;12.03;74.44;100716.31;5070918;28;20020;-21
2021/10/21 08:50:50;;;;;;;56.05;37.45;;;;;;;12.03;73.61;100715.47;5052622;28;20760;-19
2021/10/21 08:53:16;;;;;;;65.72;39.25;;;;;;;12.63;74.88;100699.09;5036066;28;20036;-20
2021/10/21 08:55:41;;;;;;;46.85;30.42;;;;;;;12.13;72.32;100705.13;5070548;28;20541;-21
2021/10/21 08:58:07;;;;;;;51.35;32.65;;;;;;;12.45;71.91;100703.31;5070406;28;20106;-19
2021/10/21 09:00:36;;;;;;;42.65;28.33;;;;;;;12.59;72.01;100687.19;5070487;28;20035;-20
2021/10/21 09:03:05;;;;;;;45.53;28.02;;;;;;;13.13;69.79;100688.38;5070124;28;20032;-20
2021/10/21 09:08:15;;;;;;;38.55;25.83;;;;;;;12.58;71.88;100669.47;5070138;28;20557;-19
2021/10/21 09:10:47;;;;;;;40.88;27.25;;;;;;;12.96;71.52;100681.94;5070131;28;20047;-20
2021/10/21 09:13:28;;;;;;;43.22;27.60;;;;;;;13.51;69.03;100682.06;5070118;28;20488;-20
2021/10/21 09:15:55;;;;;;;44.88;27.33;;;;;;;13.96;67.60;100646.84;5069727;28;20138;-20
2021/10/21 09:18:22;;;;;;;38.03;26.25;;;;;;;14.14;65.65;100642.47;5069962;28;20016;-19
2021/10/21 09:20:48;;;;;;;183.07;98.10;;;;;;;14.40;66.18;100650.13;5069526;28;20115;-20
2021/10/21 09:23:16;;;;;;;42.05;29.25;;;;;;;14.75;64.02;100640.53;5070113;28;20037;-20
2021/10/21 09:25:42;;;;;;;36.53;24.63;;;;;;;14.89;63.95;100658.06;5069806;28;20450;-19
2021/10/21 09:28:24;;;;;;;38.33;25.70;;;;;;;15.01;64.39;100636.59;5069810;28;20491;-20
2021/10/21 09:30:51;;;;;;;34.28;22.65;;;;;;;14.95;63.23;100641.00;5069526;28;20052;-20
2021/10/21 09:33:17;;;;;;;38.67;25.33;;;;;;;14.82;63.97;100620.59;5052142;28;20055;-19
2021/10/21 09:35:56;;;;;;;35.20;24.60;;;;;;;14.58;64.44;100621.63;5069774;28;20025;-20
2021/10/21 09:38:25;;;;;;;35.10;25.58;;;;;;;14.97;63.74;100619.31;5052305;28;20496;-20
2021/10/21 09:40:51;;;;;;;38.58;24.52;;;;;;;15.79;61.83;100621.88;5069168;28;20059;-20
2021/10/21 09:43:16;;;;;;;39.78;24.75;;;;;;;16.04;59.86;100608.06;5069875;28;20450;-19
2021/10/21 09:45:43;;;;;;;32.70;23.67;;;;;;;16.22;59.57;100607.03;5034864;28;20463;-20
2021/10/21 09:48:09;;;;;;;30.52;21.13;;;;;;;16.06;59.39;100589.81;5069280;28;20032;-19
2021/10/21 09:50:43;;;;;;;30.42;22.20;;;;;;;16.31;57.88;100588.59;5069639;28;20131;-19
2021/10/21 09:53:23;;;;;;;30.90;21.60;;;;;;;16.48;56.57;100578.66;5069611;28;20136;-20
2021/10/21 09:55:53;;;;;;;28.00;18.85;;;;;;;16.45;55.71;100589.91;5051256;28;20028;-20
2021/10/21 09:58:25;;;;;;;32.03;21.67;;;;;;;16.73;56.70;100585.47;5051615;28;20059;-20
2021/10/21 10:00:50;;;;;;;30.02;21.55;;;;;;;17.27;55.08;100577.63;5069142;28;20032;-20
2021/10/21 10:03:18;;;;;;;28.33;20.77;;;;;;;17.34;54.10;100571.22;5069252;28;20102;-20
2021/10/21 10:05:47;;;;;;;29.13;20.98;;;;;;;17.17;55.17;100577.50;5069222;28;20515;-20
2021/10/21 10:08:13;;;;;;;29.88;18.90;;;;;;;17.15;53.32;100566.16;5051867;28;20036;-19
2021/10/21 10:10:42;;;;;;;29.42;20.48;;;;;;;17.44;52.61;100576.75;5051409;28;20714;-19
2021/10/21 10:13:08;;;;;;;26.52;19.58;;;;;;;17.59;52.29;100549.97;5068628;28;20496;-20
2021/10/21 10:15:35;;;;;;;28.13;19.98;;;;;;;18.30;50.97;100565.19;5069316;28;20024;-21
2021/10/21 10:18:07;;;;;;;25.27;19.30;;;;;;;18.28;49.77;100556.53;5069085;28;20028;-19
2021/10/21 10:20:32;;;;;;;27.85;21.85;;;;;;;17.46;51.14;100543.06;5050885;28;20050;-19
2021/10/21 10:22:59;;;;;;;26.92;21.05;;;;;;;17.74;50.29;100540.41;5050955;28;20110;-19
2021/10/21 10:25:25;;;;;;;30.98;22.98;;;;;;;17.91;52.04;100546.50;5051260;28;20086;-20
2021/10/21 10:28:00;;;;;;;31.45;21.65;;;;;;;18.11;52.19;100540.50;5068810;28;20450;-20
2021/10/21 10:30:58;;;;;;;28.50;21.92;;;;;;;18.89;50.97;100539.16;5068796;28;20516;-20
2021/10/21 10:33:32;;;;;;;23.20;18.20;;;;;;;19.00;47.17;100530.00;5024238;28;20046;-20
2021/10/21 10:36:30;;;;;;;23.83;18.67;;;;;;;19.40;45.25;100523.13;5068804;28;20043;-20
2021/10/21 10:38:56;;;;;;;;;;;;;;;19.87;46.07;100514.03;5069036;28;20021;-19
2021/10/21 10:41:41;;;;;;;28.45;21.55;;;;;;;19.35;46.56;100520.38;5067488;28;19913;-20
2021/10/21 10:44:06;;;;;;;32.67;21.73;;;;;;;19.13;46.69;100490.88;5068724;28;20036;-20
2021/10/21 10:46:52;;;;;;;28.17;22.20;;;;;;;19.38;46.08;100487.41;5068644;28;20033;-19
2021/10/21 10:49:39;;;;;;;30.60;21.95;;;;;;;20.24;45.03;100500.22;5068762;28;20129;-19
2021/10/21 10:52:05;;;;;;;23.83;17.15;;;;;;;20.42;42.88;100492.59;5068784;28;20063;-20
2021/10/21 10:55:02;;;;;;;22.30;16.40;;;;;;;20.50;43.29;100496.66;5068672;28;20052;-19
2021/10/21 10:57:27;;;;;;;19.92;15.82;;;;;;;20.37;43.46;100490.72;5067284;28;20135;-19
2021/10/21 10:59:56;;;;;;;20.27;16.30;;;;;;;20.31;43.89;100481.00;5069095;28;20111;-19
2021/10/21 11:02:25;;;;;;;20.48;14.50;;;;;;;20.86;40.50;100484.66;5068601;28;20413;-19
2021/10/21 11:04:54;;;;;;;17.23;13.32;;;;;;;19.98;43.36;100480.50;5068431;28;20051;-20
2021/10/21 11:07:20;;;;;;;17.15;13.35;;;;;;;20.31;42.88;100467.44;5068436;28;20025;-19
2021/10/21 11:09:46;;;;;;;17.83;13.68;;;;;;;20.71;41.73;100476.56;5054354;28;20051;-19
2021/10/21 11:12:18;;;;;;;17.45;13.32;;;;;;;21.18;41.90;100461.72;5072764;28;20568;-19
2021/10/21 11:14:44;;;;;;;17.65;14.02;;;;;;;20.76;40.15;100464.88;5072397;28;20042;-20